createdAt,value
2022-12-18T08:30:23.798Z,-3.10
2022-12-18T08:33:10.233Z,-3.10
2022-12-18T08:35:55.627Z,-3.10
2022-12-18T08:38:41.224Z,-3.00
2022-12-18T08:41:27.736Z,-3.10
2022-12-18T08:44:13.444Z,-3.10
2022-12-18T08:46:58.821Z,-3.10
2022-12-18T08:49:44.387Z,-3.10
2022-12-18T08:52:29.952Z,-3.00
2022-12-18T08:55:15.456Z,-3.00
2022-12-18T08:58:01.091Z,-3.10
2022-12-18T09:00:47.079Z,-3.10
2022-12-18T09:03:33.183Z,-3.10
2022-12-18T09:06:22.030Z,-3.10
2022-12-18T09:09:07.993Z,-3.20
2022-12-18T09:11:53.715Z,-3.20
2022-12-18T09:14:39.284Z,-3.20
2022-12-18T09:17:24.922Z,-3.10
2022-12-18T09:20:11.165Z,-3.20
2022-12-18T09:22:57.425Z,-3.20
2022-12-18T09:25:43.014Z,-3.30
2022-12-18T09:28:28.593Z,-3.30
2022-12-18T09:31:21.507Z,-3.30
2022-12-18T09:34:08.412Z,-3.30
2022-12-18T09:36:54.214Z,-3.20
2022-12-18T09:39:39.842Z,-3.30
2022-12-18T09:42:25.195Z,-3.30
2022-12-18T09:45:16.185Z,-3.30
2022-12-18T09:48:06.594Z,-3.20
2022-12-18T09:50:58.941Z,-3.20
2022-12-18T09:53:54.384Z,-3.20
2022-12-18T09:56:43.860Z,-3.30
2022-12-18T09:59:39.207Z,-3.30
2022-12-18T10:02:27.679Z,-3.30
2022-12-18T10:05:29.439Z,-3.30
2022-12-18T10:08:31.659Z,-3.20
2022-12-18T10:12:16.937Z,-3.20
2022-12-18T10:15:28.786Z,-3.20
2022-12-18T10:18:40.890Z,-3.20
2022-12-18T10:21:47.052Z,-3.20
2022-12-18T11:04:07.995Z,-3.20
2022-12-18T11:07:06.007Z,-3.20
2022-12-18T11:10:04.626Z,-3.20
2022-12-18T11:12:50.449Z,-3.20
2022-12-18T11:15:35.957Z,-3.20
2022-12-18T11:18:35.208Z,-3.20
2022-12-18T11:21:20.584Z,-3.20
2022-12-18T11:24:15.839Z,-3.20
2022-12-18T11:27:07.054Z,-3.20
2022-12-18T11:29:52.886Z,-3.20
2022-12-18T11:32:44.049Z,-3.20
2022-12-18T11:35:45.552Z,-3.20
2022-12-18T11:38:35.642Z,-3.30
2022-12-18T11:41:34.158Z,-3.20
2022-12-18T11:44:47.023Z,-3.30
2022-12-18T11:47:45.988Z,-3.20
2022-12-18T11:50:53.833Z,-3.20
2022-12-18T11:53:39.626Z,-3.30
2022-12-18T11:56:37.942Z,-3.20
2022-12-18T11:59:55.851Z,-3.30
2022-12-18T12:03:28.006Z,-3.30
2022-12-18T12:06:58.647Z,-3.30
2022-12-18T12:10:27.263Z,-3.30
2022-12-18T12:14:25.286Z,-3.20
2022-12-18T12:17:46.719Z,-3.30
2022-12-18T12:21:04.605Z,-3.30
2022-12-18T12:24:17.713Z,-3.30
2022-12-18T12:27:51.937Z,-3.30
2022-12-18T12:31:12.359Z,-3.30
2022-12-18T12:34:27.821Z,-3.30
2022-12-18T12:38:09.476Z,-3.30
2022-12-18T12:41:06.960Z,-3.30
2022-12-18T12:43:52.697Z,-3.30
2022-12-18T12:46:41.782Z,-3.30
2022-12-18T12:49:37.675Z,-3.30
2022-12-18T12:52:47.644Z,-3.30
2022-12-18T12:55:34.059Z,-3.30
2022-12-18T12:59:00.920Z,-3.30
2022-12-18T13:02:34.015Z,-3.30
2022-12-18T13:05:47.383Z,-3.30
2022-12-18T13:09:17.840Z,-3.30
2022-12-18T13:12:12.093Z,-3.30
2022-12-18T13:15:27.324Z,-3.30
2022-12-18T13:18:24.050Z,-3.40
2022-12-18T13:21:29.518Z,-3.30
2022-12-18T13:24:28.236Z,-3.40
2022-12-18T13:27:41.219Z,-3.40
2022-12-18T13:30:59.620Z,-3.40
2022-12-18T13:34:24.001Z,-3.40
2022-12-18T13:36:56.244Z,-3.40
2022-12-18T13:39:41.905Z,-3.40
2022-12-18T13:42:37.863Z,-3.40
2022-12-18T13:45:47.511Z,-3.50
2022-12-18T13:48:38.355Z,-3.50
2022-12-18T13:51:25.872Z,-3.50
2022-12-18T13:54:41.503Z,-3.50
2022-12-18T13:57:38.490Z,-3.60
2022-12-18T14:00:31.371Z,-3.60
2022-12-18T14:03:28.255Z,-3.60
2022-12-18T14:06:14.699Z,-3.60
2022-12-18T14:09:00.851Z,-3.60
2022-12-18T14:11:51.654Z,-3.70
2022-12-18T14:14:38.074Z,-3.70
2022-12-18T14:17:24.185Z,-3.70
2022-12-18T14:20:16.366Z,-3.70
2022-12-18T14:23:02.553Z,-3.80
2022-12-18T14:25:48.451Z,-3.80
2022-12-18T14:28:34.052Z,-3.80
2022-12-18T14:31:27.189Z,-3.90
2022-12-18T14:34:19.137Z,-3.80
2022-12-18T14:37:05.234Z,-3.80
2022-12-18T14:40:05.759Z,-3.90
2022-12-18T14:42:54.303Z,-3.90
2022-12-18T14:45:44.807Z,-3.90
2022-12-18T14:48:43.576Z,-3.90
2022-12-18T14:51:33.780Z,-3.90
2022-12-18T14:54:21.205Z,-4.00
2022-12-18T14:57:26.130Z,-4.00
2022-12-18T15:00:25.166Z,-4.00
2022-12-18T15:03:11.344Z,-3.90
2022-12-18T15:05:57.235Z,-4.00
2022-12-18T15:08:44.376Z,-4.00
2022-12-18T15:11:50.595Z,-4.00
2022-12-18T15:14:45.306Z,-4.00
2022-12-18T15:17:31.011Z,-4.00
2022-12-18T15:20:16.816Z,-4.10
2022-12-18T15:23:02.634Z,-4.10
2022-12-18T15:25:58.293Z,-4.10
2022-12-18T15:28:53.885Z,-4.10
2022-12-18T15:31:39.300Z,-4.00
2022-12-18T15:34:25.376Z,-4.00
2022-12-18T15:37:10.772Z,-4.10
2022-12-18T15:39:56.261Z,-4.10
2022-12-18T15:42:42.770Z,-4.10
2022-12-18T15:45:28.961Z,-4.10
2022-12-18T15:48:24.769Z,-4.20
2022-12-18T15:51:34.139Z,-4.20
2022-12-18T15:54:20.390Z,-4.20
2022-12-18T15:57:12.116Z,-4.30
2022-12-18T15:59:57.894Z,-4.30
2022-12-18T16:02:43.700Z,-4.30
2022-12-18T16:05:31.128Z,-4.20
2022-12-18T16:08:16.880Z,-4.30
2022-12-18T16:11:02.708Z,-4.30
2022-12-18T16:13:48.447Z,-4.30
2022-12-18T16:16:34.562Z,-4.30
2022-12-18T16:19:20.786Z,-4.40
2022-12-18T16:22:06.556Z,-4.40
2022-12-18T16:24:54.614Z,-4.40
2022-12-18T16:27:40.298Z,-4.40
2022-12-18T16:30:36.064Z,-4.50
2022-12-18T16:33:24.469Z,-4.40
2022-12-18T16:36:09.951Z,-4.40
2022-12-18T16:38:55.433Z,-4.50
2022-12-18T16:41:40.811Z,-4.50
2022-12-18T16:44:26.923Z,-4.60
2022-12-18T16:47:15.405Z,-4.60
2022-12-18T16:50:01.100Z,-4.60
2022-12-18T16:52:46.665Z,-4.70
2022-12-18T16:55:32.144Z,-4.60
2022-12-18T16:58:17.482Z,-4.70
2022-12-18T17:01:10.346Z,-4.70
2022-12-18T17:04:06.345Z,-4.70
2022-12-18T17:06:51.689Z,-4.70
2022-12-18T17:09:38.532Z,-4.70
2022-12-18T17:12:24.447Z,-4.80
2022-12-18T17:15:10.924Z,-4.80
2022-12-18T17:17:56.935Z,-4.80
2022-12-18T17:20:43.068Z,-4.90
2022-12-18T17:23:30.983Z,-4.90
2022-12-18T17:26:16.950Z,-4.90
2022-12-18T17:29:02.481Z,-4.90
2022-12-18T17:31:48.713Z,-5.00
2022-12-18T17:34:34.504Z,-5.10
2022-12-18T17:37:21.286Z,-5.10
2022-12-18T17:40:08.619Z,-5.10
2022-12-18T17:42:54.373Z,-5.00
2022-12-18T17:45:40.914Z,-5.10
2022-12-18T17:48:26.685Z,-5.10
2022-12-18T17:51:13.523Z,-5.10
2022-12-18T17:53:59.029Z,-5.00
2022-12-18T17:56:44.893Z,-5.00
2022-12-18T17:59:30.745Z,-5.00
2022-12-18T18:02:16.601Z,-5.00
2022-12-18T18:05:03.224Z,-5.10
2022-12-18T18:07:50.047Z,-5.10
2022-12-18T18:10:39.338Z,-5.10
2022-12-18T18:13:27.925Z,-5.10
2022-12-18T18:16:15.580Z,-5.10
2022-12-18T18:19:07.966Z,-5.10
2022-12-18T18:21:54.635Z,-5.10
2022-12-18T18:24:40.674Z,-5.10
2022-12-18T18:27:26.544Z,-5.10
2022-12-18T18:30:12.752Z,-5.10
2022-12-18T18:32:58.449Z,-5.00
2022-12-18T18:35:53.772Z,-5.10
2022-12-18T18:38:43.021Z,-5.10
2022-12-18T18:41:31.057Z,-5.10
2022-12-18T18:44:18.682Z,-5.20
2022-12-18T18:47:06.931Z,-5.20
2022-12-18T18:49:55.361Z,-5.20
2022-12-18T18:52:41.287Z,-5.20
2022-12-18T18:55:28.683Z,-5.20
2022-12-18T18:58:14.148Z,-5.20
2022-12-18T19:01:04.876Z,-5.30
2022-12-18T19:03:52.904Z,-5.30
2022-12-18T19:06:39.210Z,-5.30
2022-12-18T19:09:25.219Z,-5.30
2022-12-18T19:12:11.364Z,-5.30
2022-12-18T19:14:57.351Z,-5.30
2022-12-18T19:17:42.996Z,-5.30
2022-12-18T19:20:32.741Z,-5.30
2022-12-18T19:23:18.671Z,-5.30
2022-12-18T19:29:13.237Z,-5.30
2022-12-18T19:31:58.857Z,-5.30
2022-12-18T19:34:45.153Z,-5.30
